Time;durP1;ratioP1;P1;durP2;ratioP2;P2;SDS_P1;SDS_P2;PMS_P1;PMS_P2;Temp;Humidity;BMP_temperature;BMP_pressure;BME280_temperature;BME280_humidity;BME280_pressure;Samples;Min_cycle;Max_cycle;Signal;HPM_P1;HPM_P2
2023/05/24 00:02:19;;;;;;;;;;;11.40;99.90;;;;;;5076657;28;20011;-76
2023/05/24 00:04:44;;;;;;;;;;;11.50;99.90;;;;;;5076989;28;19912;-74
2023/05/24 00:07:10;;;;;;;;;;;11.40;99.90;;;;;;5074959;28;19981;-76
2023/05/24 00:09:35;;;;;;;;;;;11.50;99.90;;;;;;5059859;28;19927;-76
2023/05/24 00:12:01;;;;;;;;;;;11.60;99.90;;;;;;5076643;28;19924;-76
2023/05/24 00:14:27;;;;;;;;;;;11.50;99.90;;;;;;5075809;28;19956;-76
2023/05/24 00:16:52;;;;;;;;;;;11.50;99.90;;;;;;5076270;28;20006;-76
2023/05/24 00:19:21;;;;;;;;;;;11.60;99.90;;;;;;5079160;28;19959;-76
2023/05/24 00:21:47;;;;;;;;;;;11.60;99.90;;;;;;5065948;28;19917;-74
2023/05/24 00:24:13;;;;;;;;;;;11.60;99.90;;;;;;5095357;28;19923;-76
2023/05/24 00:26:38;;;;;;;;;;;11.60;99.90;;;;;;5057584;28;19916;-76
2023/05/24 00:29:04;;;;;;;;;;;11.50;99.90;;;;;;5077170;28;19927;-74
2023/05/24 00:31:30;;;;;;;;;;;11.60;99.90;;;;;;5075445;28;19984;-73
2023/05/24 00:33:57;;;;;;;;;;;11.60;99.90;;;;;;5076601;28;20421;-76
2023/05/24 00:36:22;;;;;;;;;;;11.50;99.90;;;;;;5077475;28;20364;-73
2023/05/24 00:38:48;;;;;;;;;;;11.50;99.90;;;;;;5078087;28;19916;-76
2023/05/24 00:41:14;;;;;;;;;;;11.50;99.90;;;;;;5075270;28;19922;-77
2023/05/24 00:43:42;;;;;;;;;;;11.50;99.90;;;;;;5080197;28;20387;-74
2023/05/24 00:46:27;;;;;;;;;;;11.50;99.90;;;;;;5074695;28;19925;-74
2023/05/24 00:48:53;;;;;;;;;;;11.50;99.90;;;;;;5077283;28;20436;-74
2023/05/24 00:51:18;;;;;;;;;;;11.50;99.90;;;;;;5075026;28;19923;-74
2023/05/24 00:53:45;;;;;;;;;;;11.50;99.90;;;;;;5077067;28;20074;-74
2023/05/24 00:56:12;;;;;;;;;;;11.60;99.90;;;;;;5074953;28;20343;-74
2023/05/24 00:58:38;;;;;;;;;;;11.60;99.90;;;;;;5079964;28;19916;-76
2023/05/24 01:01:04;;;;;;;;;;;11.60;99.90;;;;;;5076594;28;19919;-74
2023/05/24 01:03:30;;;;;;;;;;;11.50;99.90;;;;;;5056609;28;20046;-76
2023/05/24 01:06:01;;;;;;;;;;;11.60;99.90;;;;;;5075538;28;19972;-75
2023/05/24 01:08:36;;;;;;;;;;;11.50;99.90;;;;;;5078143;28;20433;-75
2023/05/24 01:11:10;;;;;;;;;;;11.50;99.90;;;;;;5086164;28;20074;-75
2023/05/24 01:13:44;;;;;;;;;;;11.50;99.90;;;;;;5088227;28;19934;-76
2023/05/24 01:16:13;;;;;;;;;;;11.50;99.90;;;;;;5071319;28;19970;-74
2023/05/24 01:18:40;;;;;;;;;;;11.50;99.90;;;;;;5074460;28;19912;-76
2023/05/24 01:21:05;;;;;;;;;;;11.50;99.90;;;;;;5072229;28;20427;-76
2023/05/24 01:23:47;;;;;;;;;;;11.50;99.90;;;;;;5073308;28;20037;-74
2023/05/24 01:26:21;;;;;;;;;;;11.50;99.90;;;;;;5071560;28;19920;-76
2023/05/24 01:28:47;;;;;;;;;;;11.50;99.90;;;;;;5093437;28;20438;-76
2023/05/24 01:31:14;;;;;;;;;;;11.60;99.90;;;;;;5071579;28;19954;-75
2023/05/24 01:33:40;;;;;;;;;;;11.50;99.90;;;;;;5079471;28;19912;-77
2023/05/24 01:36:06;;;;;;;;;;;11.50;99.90;;;;;;5076003;28;19917;-76
2023/05/24 01:38:31;;;;;;;;;;;11.50;99.90;;;;;;5056745;28;19999;-77
2023/05/24 01:41:00;;;;;;;;;;;11.50;99.90;;;;;;5072610;28;19921;-74
2023/05/24 01:43:35;;;;;;;;;;;11.50;99.90;;;;;;5077353;28;19916;-77
2023/05/24 01:46:20;;;;;;;;;;;11.60;99.90;;;;;;5073252;28;20381;-74
2023/05/24 01:48:45;;;;;;;;;;;11.60;99.90;;;;;;5071946;28;20623;-74
2023/05/24 01:51:13;;;;;;;;;;;11.50;99.90;;;;;;5073038;28;19975;-76
2023/05/24 01:53:41;;;;;;;;;;;11.50;99.90;;;;;;5075651;28;20360;-76
2023/05/24 01:56:07;;;;;;;;;;;11.50;99.90;;;;;;5088615;28;19913;-76
2023/05/24 01:58:33;;;;;;;;;;;11.50;99.90;;;;;;5078970;28;19921;-74
2023/05/24 02:00:59;;;;;;;;;;;11.50;99.90;;;;;;5076284;28;19916;-76
2023/05/24 02:03:25;;;;;;;;;;;11.50;99.90;;;;;;5076380;28;19912;-74
2023/05/24 02:05:50;;;;;;;;;;;11.60;99.90;;;;;;5072713;28;19913;-77
2023/05/24 02:08:16;;;;;;;;;;;11.50;99.90;;;;;;5071440;28;20393;-74
2023/05/24 02:10:41;;;;;;;;;;;11.60;99.90;;;;;;5073453;28;19946;-74
2023/05/24 02:13:07;;;;;;;;;;;11.60;99.90;;;;;;5075644;28;20372;-74
2023/05/24 02:15:34;;;;;;;;;;;11.50;99.90;;;;;;5075324;28;20038;-76
2023/05/24 02:18:00;;;;;;;;;;;11.50;99.90;;;;;;5075132;28;19973;-77
2023/05/24 02:20:35;;;;;;;;;;;11.50;99.90;;;;;;5070972;28;20277;-74
2023/05/24 02:23:04;;;;;;;;;;;11.60;99.90;;;;;;5078049;28;19916;-77
2023/05/24 02:25:30;;;;;;;;;;;11.50;99.90;;;;;;5075274;28;19988;-77
2023/05/24 02:27:56;;;;;;;;;;;11.60;99.90;;;;;;5072301;28;20442;-77
2023/05/24 02:30:22;;;;;;;;;;;11.50;99.90;;;;;;5072262;28;19950;-77
2023/05/24 02:32:47;;;;;;;;;;;11.50;99.90;;;;;;5076055;28;20016;-77
2023/05/24 02:35:13;;;;;;;;;;;11.50;99.90;;;;;;5072250;28;19916;-76
2023/05/24 02:37:39;;;;;;;;;;;11.60;99.90;;;;;;5076226;28;19969;-74
2023/05/24 02:40:05;;;;;;;;;;;11.60;99.90;;;;;;5071829;28;19995;-77
2023/05/24 02:42:31;;;;;;;;;;;11.60;99.90;;;;;;5074937;28;19916;-75
2023/05/24 02:44:56;;;;;;;;;;;11.60;99.90;;;;;;5074400;28;19916;-75
2023/05/24 02:47:22;;;;;;;;;;;11.50;99.90;;;;;;5090357;28;19981;-74
2023/05/24 02:49:47;;;;;;;;;;;11.60;99.90;;;;;;5080256;28;19974;-74
2023/05/24 02:52:13;;;;;;;;;;;11.60;99.90;;;;;;5072575;28;19916;-75
2023/05/24 02:54:39;;;;;;;;;;;11.60;99.90;;;;;;5073835;28;19916;-74
2023/05/24 02:57:07;;;;;;;;;;;11.50;99.90;;;;;;5074662;28;20023;-74
2023/05/24 02:59:33;;;;;;;;;;;11.50;99.90;;;;;;5069382;28;19916;-74
2023/05/24 03:01:58;;;;;;;;;;;11.50;99.90;;;;;;5055969;28;20418;-77
2023/05/24 03:04:24;;;;;;;;;;;11.50;99.90;;;;;;5071809;28;19918;-74
2023/05/24 03:06:50;;;;;;;;;;;11.50;99.90;;;;;;5079624;28;19934;-76
2023/05/24 03:09:15;;;;;;;;;;;11.50;99.90;;;;;;5077545;28;19958;-76
2023/05/24 03:11:41;;;;;;;;;;;11.50;99.90;;;;;;5075607;28;19924;-76
2023/05/24 03:14:09;;;;;;;;;;;11.60;99.90;;;;;;5079757;28;19977;-75
2023/05/24 03:16:35;;;;;;;;;;;11.60;99.90;;;;;;5100687;28;20391;-74
2023/05/24 03:19:01;;;;;;;;;;;11.60;99.90;;;;;;5086891;28;19956;-78
2023/05/24 03:21:27;;;;;;;;;;;11.60;99.90;;;;;;5105147;28;19969;-74
2023/05/24 03:23:52;;;;;;;;;;;11.60;99.90;;;;;;5079109;28;19920;-75
2023/05/24 03:26:19;;;;;;;;;;;11.60;99.90;;;;;;5078084;28;20338;-74
2023/05/24 03:28:45;;;;;;;;;;;11.60;99.90;;;;;;5074824;28;19981;-77
2023/05/24 03:31:11;;;;;;;;;;;11.60;99.90;;;;;;5078264;28;19920;-77
2023/05/24 03:33:37;;;;;;;;;;;11.50;99.90;;;;;;5059298;28;19948;-74
2023/05/24 03:36:03;;;;;;;;;;;11.60;99.90;;;;;;5073527;28;20395;-74
2023/05/24 03:38:29;;;;;;;;;;;11.50;99.90;;;;;;5077632;28;19930;-77
2023/05/24 03:40:54;;;;;;;;;;;11.60;99.90;;;;;;5055091;28;19916;-77
2023/05/24 03:43:20;;;;;;;;;;;11.50;99.90;;;;;;5076175;28;20796;-75
2023/05/24 03:45:46;;;;;;;;;;;11.60;99.90;;;;;;5074982;28;19912;-75
2023/05/24 03:48:11;;;;;;;;;;;11.60;99.90;;;;;;5076918;28;20303;-77
2023/05/24 03:50:37;;;;;;;;;;;11.60;99.90;;;;;;5059480;28;19936;-76
2023/05/24 03:53:03;;;;;;;;;;;11.50;99.90;;;;;;5074437;28;19975;-76
2023/05/24 03:55:33;;;;;;;;;;;11.50;99.90;;;;;;5073332;28;19958;-74
2023/05/24 03:57:58;;;;;;;;;;;11.50;99.90;;;;;;5075962;28;19995;-77
2023/05/24 04:00:24;;;;;;;;;;;11.50;99.90;;;;;;5074897;28;19995;-74
2023/05/24 04:02:50;;;;;;;;;;;11.50;99.90;;;;;;5054917;28;19917;-74
2023/05/24 04:05:15;;;;;;;;;;;11.50;99.90;;;;;;5094923;28;19919;-77
2023/05/24 04:07:42;;;;;;;;;;;11.60;99.90;;;;;;5092937;28;20031;-74
2023/05/24 04:10:08;;;;;;;;;;;11.60;99.90;;;;;;5092162;28;19927;-76
2023/05/24 04:12:34;;;;;;;;;;;11.60;99.90;;;;;;5080915;28;19920;-76
2023/05/24 04:15:00;;;;;;;;;;;11.60;99.90;;;;;;5075626;28;19920;-74
2023/05/24 04:17:26;;;;;;;;;;;11.50;99.90;;;;;;5074310;28;19923;-77
2023/05/24 04:19:52;;;;;;;;;;;11.60;99.90;;;;;;5076106;28;19916;-76
2023/05/24 04:22:17;;;;;;;;;;;11.50;99.90;;;;;;5076931;28;19913;-74
2023/05/24 04:24:43;;;;;;;;;;;11.50;99.90;;;;;;5076046;28;19924;-74
2023/05/24 04:27:09;;;;;;;;;;;11.50;99.90;;;;;;5062809;28;19947;-77
2023/05/24 04:29:35;;;;;;;;;;;11.50;99.90;;;;;;5082959;28;21874;-78
2023/05/24 04:32:00;;;;;;;;;;;11.60;99.90;;;;;;5074823;28;19966;-73
2023/05/24 04:34:28;;;;;;;;;;;11.60;99.90;;;;;;5077231;28;20251;-73
2023/05/24 04:36:54;;;;;;;;;;;11.50;99.90;;;;;;5072532;28;19916;-74
2023/05/24 04:39:20;;;;;;;;;;;11.60;99.90;;;;;;5074657;28;20007;-73
2023/05/24 04:41:49;;;;;;;;;;;11.60;99.90;;;;;;5068355;28;19916;-74
2023/05/24 04:44:16;;;;;;;;;;;11.60;99.90;;;;;;5079825;28;19927;-76
2023/05/24 04:46:41;;;;;;;;;;;11.60;99.90;;;;;;5057721;28;19935;-73
2023/05/24 04:49:07;;;;;;;;;;;11.60;99.90;;;;;;5071668;28;20264;-77
2023/05/24 04:51:33;;;;;;;;;;;11.50;99.90;;;;;;5076899;28;19970;-77
2023/05/24 04:54:00;;;;;;;;;;;11.50;99.90;;;;;;5080411;28;20023;-77
2023/05/24 04:56:26;;;;;;;;;;;11.50;99.90;;;;;;5074872;28;20367;-76
2023/05/24 04:58:51;;;;;;;;;;;11.60;99.90;;;;;;5073577;28;20360;-73
2023/05/24 05:01:17;;;;;;;;;;;11.50;99.90;;;;;;5072528;28;19916;-77
2023/05/24 05:03:44;;;;;;;;;;;11.50;99.90;;;;;;5074016;28;20298;-73
2023/05/24 05:06:10;;;;;;;;;;;11.50;99.90;;;;;;5072501;28;20127;-77
2023/05/24 05:08:38;;;;;;;;;;;11.50;99.90;;;;;;5072853;28;19952;-74
2023/05/24 05:11:04;;;;;;;;;;;11.50;99.90;;;;;;5078333;28;19932;-73
2023/05/24 05:13:30;;;;;;;;;;;11.50;99.90;;;;;;5071857;28;20385;-75
2023/05/24 05:15:55;;;;;;;;;;;11.50;99.90;;;;;;5074072;28;20375;-73
2023/05/24 05:18:21;;;;;;;;;;;11.50;99.90;;;;;;5057742;28;19957;-74
2023/05/24 05:20:46;;;;;;;;;;;11.50;99.90;;;;;;5077056;28;20320;-77
2023/05/24 05:23:12;;;;;;;;;;;11.50;99.90;;;;;;5077285;28;19919;-74
2023/05/24 05:25:37;;;;;;;;;;;11.50;99.90;;;;;;5068810;28;20382;-74
2023/05/24 05:28:03;;;;;;;;;;;11.60;99.90;;;;;;5071053;28;19920;-77
2023/05/24 05:30:29;;;;;;;;;;;11.60;99.90;;;;;;5076066;28;20716;-76
2023/05/24 05:32:54;;;;;;;;;;;11.60;99.90;;;;;;5076051;28;19913;-77
2023/05/24 05:35:20;;;;;;;;;;;11.60;99.90;;;;;;5072849;28;19989;-75
2023/05/24 05:37:46;;;;;;;;;;;11.70;99.90;;;;;;5071116;28;20352;-78
2023/05/24 05:40:11;;;;;;;;;;;11.70;99.90;;;;;;5059923;28;19916;-76
2023/05/24 05:42:37;;;;;;;;;;;11.80;99.90;;;;;;5077827;28;19946;-74
2023/05/24 05:45:03;;;;;;;;;;;11.80;99.90;;;;;;5073420;28;20414;-77
2023/05/24 05:47:28;;;;;;;;;;;11.90;99.90;;;;;;5073516;28;20256;-76
2023/05/24 05:49:54;;;;;;;;;;;11.90;99.90;;;;;;5072222;28;19928;-75
2023/05/24 05:52:19;;;;;;;;;;;11.80;99.90;;;;;;5077013;28;20625;-74
2023/05/24 05:54:45;;;;;;;;;;;11.80;99.90;;;;;;5075990;28;19923;-77
2023/05/24 05:57:11;;;;;;;;;;;11.90;99.90;;;;;;5075613;28;19918;-77
2023/05/24 05:59:37;;;;;;;;;;;11.90;99.90;;;;;;5078231;28;20248;-76
2023/05/24 06:02:04;;;;;;;;;;;11.90;99.90;;;;;;5070175;28;19992;-74
2023/05/24 06:04:30;;;;;;;;;;;11.90;99.90;;;;;;5074343;28;19916;-78
2023/05/24 06:06:55;;;;;;;;;;;11.90;99.90;;;;;;5057021;28;19912;-74
2023/05/24 06:09:21;;;;;;;;;;;11.80;99.90;;;;;;5079002;28;19911;-73
2023/05/24 06:11:47;;;;;;;;;;;11.80;99.90;;;;;;5098827;28;19915;-74
2023/05/24 06:14:17;;;;;;;;;;;11.80;99.90;;;;;;5077657;28;19920;-74
2023/05/24 06:16:44;;;;;;;;;;;11.80;99.90;;;;;;5091878;28;19916;-73
2023/05/24 06:19:11;;;;;;;;;;;11.70;99.90;;;;;;5061570;28;19942;-74
2023/05/24 06:21:36;;;;;;;;;;;11.80;99.90;;;;;;5076921;28;19912;-74
2023/05/24 06:24:02;;;;;;;;;;;11.80;99.90;;;;;;5073802;28;19923;-74
2023/05/24 06:26:28;;;;;;;;;;;11.80;99.90;;;;;;5077843;28;19923;-73
2023/05/24 06:28:54;;;;;;;;;;;11.80;99.90;;;;;;5076874;28;19924;-73
2023/05/24 06:31:20;;;;;;;;;;;11.80;99.90;;;;;;5073763;28;19916;-73
2023/05/24 06:33:45;;;;;;;;;;;11.90;99.90;;;;;;5070068;28;19912;-78
2023/05/24 06:36:11;;;;;;;;;;;12.00;99.90;;;;;;5052914;28;19983;-73
2023/05/24 06:38:37;;;;;;;;;;;12.00;99.90;;;;;;5076618;28;19977;-77
2023/05/24 06:41:03;;;;;;;;;;;12.10;99.90;;;;;;5073855;28;19918;-73
2023/05/24 06:43:29;;;;;;;;;;;12.10;99.90;;;;;;5076423;28;19995;-76
2023/05/24 06:45:55;;;;;;;;;;;12.20;99.90;;;;;;5093881;28;20026;-73
2023/05/24 06:48:20;;;;;;;;;;;12.20;99.90;;;;;;5073689;28;19955;-73
2023/05/24 06:50:46;;;;;;;;;;;12.30;99.90;;;;;;5072951;28;20003;-73
2023/05/24 06:53:12;;;;;;;;;;;12.50;99.90;;;;;;5071994;28;20288;-75
2023/05/24 06:55:37;;;;;;;;;;;12.60;99.90;;;;;;5071848;28;20330;-73
2023/05/24 06:58:05;;;;;;;;;;;12.60;99.90;;;;;;5069211;28;19913;-74
2023/05/24 07:00:31;;;;;;;;;;;12.80;99.90;;;;;;5071648;28;19916;-73
2023/05/24 07:02:56;;;;;;;;;;;12.80;99.90;;;;;;5069896;28;19919;-73
2023/05/24 07:05:22;;;;;;;;;;;12.80;99.90;;;;;;5072270;28;19919;-76
2023/05/24 07:07:48;;;;;;;;;;;12.90;99.90;;;;;;5072667;28;20657;-72
2023/05/24 07:10:13;;;;;;;;;;;12.80;99.90;;;;;;5069009;28;19928;-78
2023/05/24 07:12:39;;;;;;;;;;;12.80;99.90;;;;;;5073347;28;19913;-76
2023/05/24 07:15:05;;;;;;;;;;;12.70;99.90;;;;;;5074176;28;19941;-76
2023/05/24 07:17:31;;;;;;;;;;;13.50;99.90;;;;;;5072594;28;19908;-76
2023/05/24 07:19:57;;;;;;;;;;;13.10;99.90;;;;;;5078049;28;19931;-73
2023/05/24 07:22:24;;;;;;;;;;;12.90;99.90;;;;;;5076849;28;20390;-75
2023/05/24 07:24:50;;;;;;;;;;;12.80;99.90;;;;;;5073609;28;19975;-76
2023/05/24 07:27:15;;;;;;;;;;;12.80;99.90;;;;;;5092929;28;20327;-76
2023/05/24 07:29:41;;;;;;;;;;;12.70;99.90;;;;;;5077208;28;19921;-75
2023/05/24 07:32:07;;;;;;;;;;;12.70;99.90;;;;;;5093441;28;19922;-73
2023/05/24 07:34:33;;;;;;;;;;;12.60;99.90;;;;;;5079727;28;19912;-75
2023/05/24 07:37:00;;;;;;;;;;;12.70;99.90;;;;;;5078450;28;19909;-75
2023/05/24 07:39:26;;;;;;;;;;;12.80;99.90;;;;;;5073723;28;19916;-76
2023/05/24 07:41:52;;;;;;;;;;;12.90;99.90;;;;;;5072972;28;19987;-75
2023/05/24 07:44:18;;;;;;;;;;;12.90;99.90;;;;;;5060375;28;19924;-74
2023/05/24 07:46:43;;;;;;;;;;;12.90;99.90;;;;;;5079032;28;19924;-74
2023/05/24 07:49:09;;;;;;;;;;;13.00;99.90;;;;;;5074310;28;19959;-75
2023/05/24 07:51:35;;;;;;;;;;;13.10;99.90;;;;;;5080152;28;19974;-77
2023/05/24 07:54:01;;;;;;;;;;;13.20;99.90;;;;;;5078293;28;20620;-75
2023/05/24 07:56:26;;;;;;;;;;;13.30;99.90;;;;;;5061235;28;19969;-74
2023/05/24 07:58:55;;;;;;;;;;;13.30;99.90;;;;;;5078088;28;19962;-73
2023/05/24 08:01:22;;;;;;;;;;;13.20;99.90;;;;;;5080993;28;19966;-75
2023/05/24 08:03:48;;;;;;;;;;;13.10;99.90;;;;;;5079459;28;19908;-75
2023/05/24 08:06:13;;;;;;;;;;;13.10;99.90;;;;;;5080572;28;19924;-75
2023/05/24 08:08:42;;;;;;;;;;;13.30;99.90;;;;;;5080652;28;20028;-73
2023/05/24 08:11:08;;;;;;;;;;;13.30;99.90;;;;;;5079250;28;19920;-75
2023/05/24 08:13:33;;;;;;;;;;;13.40;99.90;;;;;;5101084;28;19908;-76
2023/05/24 08:15:59;;;;;;;;;;;13.40;99.90;;;;;;5089273;28;20367;-76
2023/05/24 08:18:25;;;;;;;;;;;13.50;99.90;;;;;;5081867;28;19916;-76
2023/05/24 08:20:50;;;;;;;;;;;13.50;99.90;;;;;;5079065;28;19923;-76
2023/05/24 08:23:16;;;;;;;;;;;13.70;99.90;;;;;;5079997;28;20003;-73
2023/05/24 08:25:41;;;;;;;;;;;13.70;99.90;;;;;;5079511;28;19946;-76
2023/05/24 08:28:09;;;;;;;;;;;13.70;99.90;;;;;;5082261;28;20010;-73
2023/05/24 08:30:35;;;;;;;;;;;13.70;99.90;;;;;;5082620;28;19927;-73
2023/05/24 08:33:01;;;;;;;;;;;13.90;99.90;;;;;;5078486;28;19920;-76
2023/05/24 08:35:27;;;;;;;;;;;13.90;99.90;;;;;;5079423;28;19920;-77
2023/05/24 08:37:52;;;;;;;;;;;13.80;99.90;;;;;;5081876;28;19991;-74
2023/05/24 08:40:18;;;;;;;;;;;13.90;99.90;;;;;;5079005;28;20003;-75
2023/05/24 08:42:45;;;;;;;;;;;13.90;99.90;;;;;;5079222;28;20264;-74
2023/05/24 08:45:11;;;;;;;;;;;13.70;99.90;;;;;;5078380;28;19912;-74
2023/05/24 08:47:37;;;;;;;;;;;13.60;99.90;;;;;;5079127;28;20536;-77
2023/05/24 08:50:04;;;;;;;;;;;13.50;99.90;;;;;;5079854;28;19920;-75
2023/05/24 08:52:30;;;;;;;;;;;13.30;99.90;;;;;;5080723;28;19922;-76
2023/05/24 08:54:59;;;;;;;;;;;13.30;99.90;;;;;;5076736;28;19918;-77
2023/05/24 08:57:26;;;;;;;;;;;13.30;99.90;;;;;;5062934;28;19935;-74
2023/05/24 08:59:54;;;;;;;;;;;13.20;99.90;;;;;;5079166;28;19948;-74
2023/05/24 09:02:20;;;;;;;;;;;13.20;99.90;;;;;;5076829;28;19935;-76
2023/05/24 09:04:47;;;;;;;;;;;13.20;99.90;;;;;;5063635;28;20015;-75
2023/05/24 09:07:13;;;;;;;;;;;13.30;99.90;;;;;;5082476;28;20304;-77
2023/05/24 09:09:46;;;;;;;;;;;13.50;99.90;;;;;;5061710;28;19934;-76
2023/05/24 09:12:14;;;;;;;;;;;13.70;99.90;;;;;;5083116;28;19913;-77
2023/05/24 09:14:49;;;;;;;;;;;13.90;99.90;;;;;;5095809;28;19912;-76
2023/05/24 09:17:14;;;;;;;;;;;14.20;99.90;;;;;;5080827;28;19912;-75
2023/05/24 09:19:44;;;;;;;;;;;14.40;99.90;;;;;;5079842;28;19919;-76
2023/05/24 09:22:12;;;;;;;;;;;14.50;99.90;;;;;;5080697;28;20524;-78
2023/05/24 09:24:46;;;;;;;;;;;14.70;99.90;;;;;;5082933;28;19928;-75
2023/05/24 09:27:13;;;;;;;;;;;14.90;99.90;;;;;;5084895;28;19916;-78
2023/05/24 09:29:40;;;;;;;;;;;15.00;99.90;;;;;;5084100;28;20530;-77
2023/05/24 09:32:08;;;;;;;;;;;15.00;99.90;;;;;;5082138;28;20368;-76
2023/05/24 09:34:38;;;;;;;;;;;15.00;99.90;;;;;;5078459;28;20502;-75
2023/05/24 09:37:04;;;;;;;;;;;15.10;99.90;;;;;;5082460;28;20453;-76
2023/05/24 09:39:30;;;;;;;;;;;15.00;99.90;;;;;;5099941;28;19912;-76
2023/05/24 09:41:57;;;;;;;;;;;15.00;99.90;;;;;;5081910;28;19912;-75
2023/05/24 09:44:26;;;;;;;;;;;15.00;99.90;;;;;;5070340;28;19955;-76
2023/05/24 09:46:53;;;;;;;;;;;14.80;99.90;;;;;;5087571;28;19919;-76
2023/05/24 09:49:20;;;;;;;;;;;14.90;99.90;;;;;;5084325;28;19916;-77
2023/05/24 09:51:46;;;;;;;;;;;15.00;99.90;;;;;;5066795;28;19916;-77
2023/05/24 09:54:11;;;;;;;;;;;15.10;99.90;;;;;;5075756;28;20407;-76
2023/05/24 09:56:38;;;;;;;;;;;15.10;99.90;;;;;;5082196;28;19964;-75
2023/05/24 09:59:04;;;;;;;;;;;15.10;99.90;;;;;;5085147;28;19912;-78
2023/05/24 10:01:32;;;;;;;;;;;15.10;99.90;;;;;;5080709;28;20015;-78
2023/05/24 10:04:01;;;;;;;;;;;15.10;99.90;;;;;;5087108;28;19916;-79
2023/05/24 10:06:33;;;;;;;;;;;15.20;99.90;;;;;;5088116;28;19913;-79
2023/05/24 10:08:59;;;;;;;;;;;15.20;99.90;;;;;;5085596;28;19955;-76
2023/05/24 10:11:25;;;;;;;;;;;15.20;99.90;;;;;;5083456;28;20268;-75
2023/05/24 10:13:51;;;;;;;;;;;15.20;99.90;;;;;;5086084;28;20395;-75
2023/05/24 10:16:17;;;;;;;;;;;15.40;99.90;;;;;;5083787;28;19998;-74
2023/05/24 10:18:42;;;;;;;;;;;15.50;99.90;;;;;;5078708;28;20024;-75
2023/05/24 10:21:09;;;;;;;;;;;15.50;99.90;;;;;;5084228;28;20520;-74
2023/05/24 10:23:38;;;;;;;;;;;15.60;99.90;;;;;;5081086;28;19920;-76
2023/05/24 10:26:05;;;;;;;;;;;15.60;99.90;;;;;;5077293;28;19917;-74
2023/05/24 10:28:32;;;;;;;;;;;15.60;99.90;;;;;;5077394;28;20400;-74
2023/05/24 10:31:07;;;;;;;;;;;15.60;99.90;;;;;;5062760;28;19921;-73
2023/05/24 10:33:35;;;;;;;;;;;15.50;99.90;;;;;;5076869;28;19912;-74
2023/05/24 10:36:02;;;;;;;;;;;15.40;99.90;;;;;;5078986;28;19916;-75
2023/05/24 10:38:28;;;;;;;;;;;15.30;99.90;;;;;;5078259;28;19916;-78
2023/05/24 10:40:54;;;;;;;;;;;15.10;99.90;;;;;;5077110;28;19916;-76
2023/05/24 10:43:20;;;;;;;;;;;15.00;99.90;;;;;;5078880;28;20367;-75
2023/05/24 10:45:49;;;;;;;;;;;14.90;99.90;;;;;;5074400;28;20438;-74
2023/05/24 10:48:15;;;;;;;;;;;14.80;99.90;;;;;;5077980;28;19912;-73
2023/05/24 10:50:42;;;;;;;;;;;14.90;99.90;;;;;;5078488;28;19920;-73
2023/05/24 10:53:11;;;;;;;;;;;14.90;99.90;;;;;;5079335;28;20294;-74
2023/05/24 10:55:49;;;;;;;;;;;15.00;99.90;;;;;;5078102;28;19927;-74
2023/05/24 10:58:16;;;;;;;;;;;15.20;99.90;;;;;;5079424;28;19970;-75
2023/05/24 11:00:44;;;;;;;;;;;15.40;99.90;;;;;;5078703;28;19919;-74
2023/05/24 11:03:11;;;;;;;;;;;15.50;99.90;;;;;;5076821;28;19919;-75
2023/05/24 11:05:46;;;;;;;;;;;15.80;99.90;;;;;;5078725;28;19912;-77
2023/05/24 11:08:12;;;;;;;;;;;16.00;99.90;;;;;;5079800;28;19962;-77
2023/05/24 11:10:38;;;;;;;;;;;16.30;99.90;;;;;;5096641;28;20272;-78
2023/05/24 11:13:06;;;;;;;;;;;16.50;99.90;;;;;;5080205;28;19912;-78
2023/05/24 11:15:33;;;;;;;;;;;16.70;99.90;;;;;;5063023;28;19919;-78
2023/05/24 11:18:08;;;;;;;;;;;16.70;99.90;;;;;;5078923;28;20597;-77
2023/05/24 11:20:35;;;;;;;;;;;16.80;99.90;;;;;;5080817;28;19962;-78
2023/05/24 11:23:05;;;;;;;;;;;16.70;99.90;;;;;;5078481;28;19923;-76
2023/05/24 11:25:36;;;;;;;;;;;16.70;99.90;;;;;;5077566;28;20363;-76
2023/05/24 11:28:03;;;;;;;;;;;16.60;99.90;;;;;;5099043;28;20414;-78
2023/05/24 11:30:31;;;;;;;;;;;16.80;99.90;;;;;;5085016;28;19923;-77
2023/05/24 11:32:57;;;;;;;;;;;17.20;99.90;;;;;;5085090;28;20005;-77
2023/05/24 11:35:26;;;;;;;;;;;18.30;99.90;;;;;;5081266;28;19916;-77
2023/05/24 11:37:52;;;;;;;;;;;18.90;98.80;;;;;;5084528;28;19995;-77
2023/05/24 11:40:19;;;;;;;;;;;19.20;99.90;;;;;;5082233;28;19921;-74
2023/05/24 11:42:45;;;;;;;;;;;19.00;98.70;;;;;;5083145;28;19961;-76
2023/05/24 11:45:12;;;;;;;;;;;18.30;99.40;;;;;;5063627;28;19992;-75
2023/05/24 11:47:38;;;;;;;;;;;17.50;99.90;;;;;;5074654;28;19951;-74
2023/05/24 11:50:05;;;;;;;;;;;17.00;99.90;;;;;;5079298;28;19937;-77
2023/05/24 11:52:31;;;;;;;;;;;16.60;99.90;;;;;;5080895;28;19931;-76
2023/05/24 11:54:57;;;;;;;;;;;16.10;99.90;;;;;;5083340;28;20406;-77
2023/05/24 11:57:28;;;;;;;;;;;15.90;99.90;;;;;;5084451;28;19916;-76
2023/05/24 11:59:54;;;;;;;;;;;15.90;99.90;;;;;;5079750;28;19950;-76
2023/05/24 12:02:19;;;;;;;;;;;15.90;99.90;;;;;;5076612;28;19977;-76
2023/05/24 12:04:46;;;;;;;;;;;15.80;99.90;;;;;;5079102;28;19916;-74
2023/05/24 12:07:11;;;;;;;;;;;15.70;99.90;;;;;;5097423;28;20346;-76
2023/05/24 12:09:37;;;;;;;;;;;15.80;99.90;;;;;;5080304;28;19977;-74
2023/05/24 12:12:03;;;;;;;;;;;15.80;99.90;;;;;;5081008;28;19925;-74
2023/05/24 12:14:29;;;;;;;;;;;15.80;99.90;;;;;;5083611;28;19987;-76
2023/05/24 12:16:59;;;;;;;;;;;15.90;99.90;;;;;;5085822;28;19939;-76
2023/05/24 12:19:28;;;;;;;;;;;16.00;99.90;;;;;;5079014;28;19920;-74
2023/05/24 12:21:57;;;;;;;;;;;16.00;99.90;;;;;;5080559;28;19912;-75
2023/05/24 12:24:23;;;;;;;;;;;16.00;99.90;;;;;;5075970;28;20028;-75
2023/05/24 12:26:49;;;;;;;;;;;16.20;99.90;;;;;;5082715;28;19916;-76
2023/05/24 12:29:15;;;;;;;;;;;16.40;99.90;;;;;;5080494;28;19938;-76
2023/05/24 12:31:42;;;;;;;;;;;16.60;99.90;;;;;;5078492;28;20298;-76
2023/05/24 12:34:11;;;;;;;;;;;16.60;99.90;;;;;;5078466;28;19916;-74
2023/05/24 12:36:37;;;;;;;;;;;16.30;99.90;;;;;;5083049;28;19909;-74
2023/05/24 12:39:16;;;;;;;;;;;16.20;99.90;;;;;;5077729;28;19917;-74
2023/05/24 12:41:42;;;;;;;;;;;16.20;99.90;;;;;;5082145;28;19908;-76
2023/05/24 12:44:09;;;;;;;;;;;16.10;99.90;;;;;;5096438;28;20403;-76
2023/05/24 12:46:35;;;;;;;;;;;15.90;99.90;;;;;;5064163;28;20409;-76
2023/05/24 12:49:03;;;;;;;;;;;16.00;99.90;;;;;;5061316;28;20883;-77
2023/05/24 12:51:29;;;;;;;;;;;15.90;99.90;;;;;;5063229;28;19920;-76
2023/05/24 12:53:55;;;;;;;;;;;15.90;99.90;;;;;;5078181;28;20411;-76
2023/05/24 12:56:23;;;;;;;;;;;16.00;99.90;;;;;;5098552;28;19958;-75
2023/05/24 12:58:49;;;;;;;;;;;15.90;99.90;;;;;;5080569;28;20396;-75
2023/05/24 13:01:15;;;;;;;;;;;16.00;99.90;;;;;;5082187;28;19943;-76
2023/05/24 13:03:40;;;;;;;;;;;16.10;99.90;;;;;;5076514;28;20464;-73
2023/05/24 13:06:07;;;;;;;;;;;16.00;99.90;;;;;;5079481;28;19916;-75
2023/05/24 13:08:34;;;;;;;;;;;16.30;99.90;;;;;;5081666;28;19970;-74
2023/05/24 13:11:00;;;;;;;;;;;16.40;99.90;;;;;;5081809;28;19916;-74
2023/05/24 13:13:27;;;;;;;;;;;16.60;99.90;;;;;;5065384;28;19920;-76
2023/05/24 13:15:53;;;;;;;;;;;16.90;99.90;;;;;;5077294;28;19938;-75
2023/05/24 13:18:19;;;;;;;;;;;17.20;99.90;;;;;;5082075;28;20045;-76
2023/05/24 13:20:45;;;;;;;;;;;17.10;99.90;;;;;;5061158;28;20093;-73
2023/05/24 13:23:11;;;;;;;;;;;17.10;99.90;;;;;;5077942;28;20085;-74
2023/05/24 13:25:37;;;;;;;;;;;17.10;99.90;;;;;;5078363;28;20012;-73
2023/05/24 13:28:03;;;;;;;;;;;17.00;99.90;;;;;;5078995;28;20406;-75
2023/05/24 13:30:29;;;;;;;;;;;17.00;99.90;;;;;;5074674;28;20038;-75
2023/05/24 13:32:55;;;;;;;;;;;16.70;99.90;;;;;;5078947;28;20010;-75
2023/05/24 13:35:21;;;;;;;;;;;16.60;99.90;;;;;;5073901;28;19958;-74
2023/05/24 13:37:47;;;;;;;;;;;16.60;99.90;;;;;;5076629;28;20253;-74
2023/05/24 13:40:12;;;;;;;;;;;16.50;99.90;;;;;;5077097;28;19991;-74
2023/05/24 13:42:38;;;;;;;;;;;16.60;99.90;;;;;;5084619;28;19952;-75
2023/05/24 13:45:04;;;;;;;;;;;16.50;99.90;;;;;;5080527;28;20004;-74
2023/05/24 13:47:30;;;;;;;;;;;16.40;99.90;;;;;;5077958;28;19955;-75
2023/05/24 13:49:56;;;;;;;;;;;16.40;99.90;;;;;;5073705;28;19912;-74
2023/05/24 13:52:22;;;;;;;;;;;16.50;99.90;;;;;;5079686;28;19916;-75
2023/05/24 13:54:48;;;;;;;;;;;16.50;99.90;;;;;;5080798;28;19951;-74
2023/05/24 13:57:15;;;;;;;;;;;16.70;99.90;;;;;;5060419;28;19959;-74
2023/05/24 13:59:40;;;;;;;;;;;17.10;99.90;;;;;;5077120;28;20384;-74
2023/05/24 14:02:06;;;;;;;;;;;17.30;99.90;;;;;;5077503;28;19973;-74
2023/05/24 14:04:32;;;;;;;;;;;17.40;99.90;;;;;;5076887;28;19940;-74
2023/05/24 14:07:00;;;;;;;;;;;17.40;99.90;;;;;;5076516;28;19974;-75
2023/05/24 14:09:26;;;;;;;;;;;17.10;99.90;;;;;;5074271;28;20312;-74
2023/05/24 14:11:52;;;;;;;;;;;16.80;99.90;;;;;;5078695;28;19916;-74
2023/05/24 14:14:18;;;;;;;;;;;16.60;99.90;;;;;;5077434;28;20007;-75